Time,TemperatureF,DewpointF,PressureIn,WindDirection,WindDirectionDegrees,WindSpeedMPH,WindSpeedGustMPH,Humidity,HourlyPrecipIn,Conditions,Clouds,dailyrainin,SoftwareType,DateUTC
2013-12-19 01:12:00,33.0,24.0,30.09,SW,218,6.0,6.0,68,0.00,,,0.00,,2013-12-19 06:12:00,
2013-12-19 01:22:00,33.0,24.0,30.09,SW,218,6.0,6.0,68,0.00,,,0.00,,2013-12-19 06:22:00,
2013-12-19 01:42:00,33.0,23.0,30.08,SW,228,0.0,0.0,66,0.00,,,0.00,,2013-12-19 06:42:00,
2013-12-19 01:52:00,33.0,23.0,30.08,SW,228,0.0,0.0,66,0.00,,,0.00,,2013-12-19 06:52:00,
2013-12-19 02:02:00,33.0,23.0,30.08,SW,228,0.0,0.0,66,0.00,,,0.00,,2013-12-19 07:02:00,
2013-12-19 02:22:00,35.0,22.0,30.08,South,180,5.0,5.0,59,0.00,,,0.00,,2013-12-19 07:22:00,
2013-12-19 02:32:00,35.0,22.0,30.08,South,180,5.0,5.0,59,0.00,,,0.00,,2013-12-19 07:32:00,
2013-12-19 02:52:00,36.0,21.0,30.08,South,188,0.0,3.0,54,0.00,,,0.00,,2013-12-19 07:52:00,
2013-12-19 03:02:00,36.0,21.0,30.08,South,188,0.0,3.0,54,0.00,,,0.00,,2013-12-19 08:02:00,
2013-12-19 03:11:00,36.0,21.0,30.08,South,188,0.0,3.0,54,0.00,,,0.00,,2013-12-19 08:11:00,
2013-12-19 03:21:00,36.0,21.0,30.08,South,188,0.0,3.0,54,0.00,,,0.00,,2013-12-19 08:21:00,
2013-12-19 03:42:00,37.0,19.0,30.08,SW,222,0.0,5.0,48,0.00,,,0.00,,2013-12-19 08:42:00,
2013-12-19 03:52:00,37.0,19.0,30.08,SW,222,0.0,5.0,48,0.00,,,0.00,,2013-12-19 08:52:00,
2013-12-19 04:22:00,38.0,16.0,30.08,SSW,207,6.0,6.0,41,0.00,,,0.00,,2013-12-19 09:22:00,
2013-12-19 04:33:00,38.0,16.0,30.08,SSW,207,6.0,6.0,41,0.00,,,0.00,,2013-12-19 09:33:00,
2013-12-19 04:53:00,38.0,16.0,30.09,SSW,211,1.0,0.0,41,0.00,,,0.00,,2013-12-19 09:53:00,
2013-12-19 05:12:00,38.0,17.0,30.09,South,172,0.0,0.0,42,0.00,,,0.00,,2013-12-19 10:12:00,
2013-12-19 05:23:00,38.0,17.0,30.09,South,172,0.0,0.0,42,0.00,,,0.00,,2013-12-19 10:23:00,
2013-12-19 05:43:00,40.0,19.0,30.09,SSW,204,6.0,6.0,43,0.00,,,0.00,,2013-12-19 10:43:00,
2013-12-19 05:53:00,40.0,19.0,30.09,SSW,204,6.0,6.0,43,0.00,,,0.00,,2013-12-19 10:53:00,
2013-12-19 06:03:00,40.0,19.0,30.09,SSW,204,6.0,6.0,43,0.00,,,0.00,,2013-12-19 11:03:00,
2013-12-19 06:12:00,40.0,19.0,30.09,SSW,204,6.0,6.0,43,0.00,,,0.00,,2013-12-19 11:12:00,